Time;durP1;ratioP1;P1;durP2;ratioP2;P2;SDS_P1;SDS_P2;PMS_P1;PMS_P2;Temp;Humidity;BMP_temperature;BMP_pressure;BME280_temperature;BME280_humidity;BME280_pressure;Samples;Min_cycle;Max_cycle;Signal;HPM_P1;HPM_P2
2023/09/29 10:51:41;;;;;;;9.90;4.60;;;;;;;28.35;29.93;101685.15;103155;1289;600942;-87
2023/09/29 10:54:07;;;;;;;13.90;4.50;;;;;;;28.29;30.02;101678.41;103059;1291;60369;-91
2023/09/29 10:56:34;;;;;;;8.00;4.00;;;;;;;28.38;30.14;101671.70;103185;1288;60322;-89
2023/09/29 10:59:06;;;;;;;16.60;4.70;;;;;;;28.50;29.90;101669.83;103125;1292;60354;-91
2023/09/29 11:04:56;;;;;;;11.70;4.10;;;;;;;28.80;30.15;101669.94;102979;1290;600376;-87
2023/09/29 11:07:23;;;;;;;15.40;4.70;;;;;;;28.87;29.71;101666.56;102951;1289;60838;-91
2023/09/29 11:09:49;;;;;;;13.40;4.40;;;;;;;28.95;29.83;101662.62;103301;1289;60315;-90
2023/09/29 11:16:17;;;;;;;12.30;4.30;;;;;;;28.99;29.19;101653.45;102985;1292;600152;-91
2023/09/29 11:18:46;;;;;;;21.70;5.60;;;;;;;29.10;29.39;101652.38;103039;1294;61851;-89
2023/09/29 11:24:46;;;;;;;8.90;3.90;;;;;;;29.04;29.50;101654.83;103084;1289;601280;-91
2023/09/29 11:27:12;;;;;;;12.50;4.40;;;;;;;29.01;29.86;101654.13;103247;1289;60662;-90
2023/09/29 11:30:08;;;;;;;14.40;4.10;;;;;;;28.99;29.33;101652.17;102961;1297;60330;-90
2023/09/29 11:32:34;;;;;;;13.30;4.00;;;;;;;28.91;29.06;101648.48;102891;1296;73589;-91
2023/09/29 11:35:00;;;;;;;11.20;4.20;;;;;;;28.94;29.13;101645.63;102795;1294;60471;-88
2023/09/29 11:40:55;;;;;;;8.90;4.00;;;;;;;28.88;29.05;101643.02;103242;1290;601035;-92
2023/09/29 11:43:39;;;;;;;6.80;4.00;;;;;;;29.03;29.45;101641.75;102777;1292;601574;-85
2023/09/29 11:46:05;;;;;;;8.90;4.20;;;;;;;29.23;29.23;101636.48;102691;1300;60656;-91
2023/09/29 11:48:31;;;;;;;12.60;4.50;;;;;;;29.43;29.51;101637.48;102648;1294;60422;-89
2023/09/29 11:50:57;;;;;;;28.60;4.70;;;;;;;29.71;29.12;101632.71;102778;1293;60509;-88
2023/09/29 11:56:45;;;;;;;10.20;4.20;;;;;;;29.87;29.13;101623.36;102940;1295;600423;-90
2023/09/29 11:59:11;;;;;;;16.60;5.30;;;;;;;29.95;29.03;101625.17;102834;1295;60895;-91
2023/09/29 12:01:37;;;;;;;16.00;4.40;;;;;;;29.75;28.69;101628.98;102674;1295;60545;-85
2023/09/29 12:04:19;;;;;;;7.50;3.70;;;;;;;29.48;28.78;101625.31;103046;1292;600327;-89
2023/09/29 12:06:45;;;;;;;13.30;4.70;;;;;;;29.28;29.20;101629.94;102915;1296;60355;-89
2023/09/29 12:09:10;;;;;;;9.70;3.90;;;;;;;29.11;29.09;101626.39;103347;1294;60400;-92
2023/09/29 12:15:08;;;;;;;9.90;4.40;;;;;;;28.76;28.91;101624.42;103081;1292;601102;-88
2023/09/29 12:17:35;;;;;;;9.10;4.50;;;;;;;28.61;29.56;101621.27;103367;1289;60338;-89
2023/09/29 12:20:02;;;;;;;8.10;4.30;;;;;;;28.53;29.84;101620.60;103169;1293;60361;-88
2023/09/29 12:22:31;;;;;;;11.10;3.90;;;;;;;28.45;29.57;101617.53;102823;1295;60410;-88
2023/09/29 12:24:56;;;;;;;8.40;4.20;;;;;;;28.31;29.89;101613.04;103023;1287;76060;-84
2023/09/29 12:27:59;;;;;;;12.80;4.20;;;;;;;28.21;30.08;101607.77;103803;1283;613604;-84
2023/09/29 12:30:25;;;;;;;12.10;4.20;;;;;;;28.08;30.67;101615.04;103848;1286;60501;-86
2023/09/29 12:32:51;;;;;;;10.50;4.50;;;;;;;27.98;30.51;101616.43;103827;1291;60389;-87
2023/09/29 12:35:16;;;;;;;10.70;4.30;;;;;;;27.89;30.46;101609.05;103437;1286;60291;-85
2023/09/29 12:37:43;;;;;;;9.20;4.20;;;;;;;27.83;30.36;101608.25;103417;1289;61000;-86
2023/09/29 12:40:11;;;;;;;10.80;5.00;;;;;;;27.79;30.81;101611.70;103022;1286;467171;-86
2023/09/29 12:42:46;;;;;;;8.80;4.30;;;;;;;27.73;30.55;101607.78;104114;1288;60424;-90
2023/09/29 12:45:21;;;;;;;13.90;4.30;;;;;;;27.62;30.74;101607.88;104026;1283;61137;-85
2023/09/29 12:47:52;;;;;;;12.40;4.80;;;;;;;27.55;30.23;101605.77;106859;1283;72684;-86
2023/09/29 12:50:19;;;;;;;9.80;4.10;;;;;;;27.51;30.88;101601.22;107133;1282;73296;-87
2023/09/29 12:52:44;;;;;;;22.20;4.10;;;;;;;27.50;31.33;101602.28;106668;1286;73778;-90
2023/09/29 12:55:14;;;;;;;12.00;4.60;;;;;;;27.46;31.12;101602.41;106597;1287;58179;-91
2023/09/29 12:57:44;;;;;;;23.90;5.20;;;;;;;27.39;31.49;101600.33;106568;1287;60038;-85
2023/09/29 13:00:19;;;;;;;7.40;4.20;;;;;;;27.34;31.13;101599.52;106292;1290;73806;-89
2023/09/29 13:02:51;;;;;;;15.40;4.50;;;;;;;27.31;31.13;101595.15;106268;1289;73367;-91
2023/09/29 13:05:17;;;;;;;13.20;4.70;;;;;;;27.29;31.11;101596.28;106296;1290;73529;-82
2023/09/29 13:07:47;;;;;;;19.20;5.10;;;;;;;27.24;31.39;101596.68;106335;1289;58571;-87
2023/09/29 13:10:13;;;;;;;14.90;5.10;;;;;;;27.21;31.44;101594.36;106273;1290;61176;-87
2023/09/29 13:12:38;;;;;;;10.50;4.40;;;;;;;27.21;31.38;101588.26;106257;1289;58229;-89
2023/09/29 13:15:05;;;;;;;38.10;5.10;;;;;;;27.21;31.33;101591.77;106290;1290;58933;-85
2023/09/29 13:17:32;;;;;;;10.70;4.90;;;;;;;27.16;31.26;101585.23;106063;1293;58285;-83
2023/09/29 13:19:57;;;;;;;14.00;5.10;;;;;;;27.14;31.64;101584.02;105985;1292;58356;-83
2023/09/29 13:22:25;;;;;;;11.10;4.90;;;;;;;27.15;31.57;101584.42;106201;1293;58220;-86
2023/09/29 13:24:52;;;;;;;18.00;4.90;;;;;;;27.14;31.85;101584.50;106376;1289;58448;-88
2023/09/29 13:27:24;;;;;;;21.60;5.30;;;;;;;27.14;31.67;101581.36;106376;1289;58147;-86
2023/09/29 13:30:07;;;;;;;;;;;;;;;;;;;;;
2023/09/29 13:32:40;;;;;;;13.10;4.90;;;;;;;27.07;31.96;101583.58;106610;1286;60935;-89
2023/09/29 13:35:14;;;;;;;13.20;4.80;;;;;;;27.03;31.69;101580.30;106451;1286;59017;-91
2023/09/29 13:38:07;;;;;;;;;;;;;;;;;;;;;
2023/09/29 13:40:35;;;;;;;8.80;4.20;;;;;;;26.99;31.84;101576.61;106627;1286;74846;-91
2023/09/29 13:43:24;;;;;;;10.50;5.00;;;;;;;26.95;32.01;101571.98;106466;1286;72770;-90
2023/09/29 13:45:55;;;;;;;11.40;4.80;;;;;;;26.92;32.23;101566.04;106539;1286;61602;-89
2023/09/29 13:48:33;;;;;;;12.70;4.80;;;;;;;26.92;32.51;101568.48;106484;1286;61145;-92
2023/09/29 13:51:09;;;;;;;14.80;5.10;;;;;;;26.90;32.23;101568.11;106499;1286;74056;-84
2023/09/29 13:53:38;;;;;;;13.70;4.50;;;;;;;26.87;32.18;101565.62;106324;1288;73827;-92
2023/09/29 13:56:17;;;;;;;11.60;5.10;;;;;;;26.84;32.19;101567.13;106306;1288;73498;-87
2023/09/29 13:58:45;;;;;;;8.20;4.70;;;;;;;26.80;32.29;101568.48;106082;1292;60041;-92
2023/09/29 14:01:25;;;;;;;;;;;;;;;;;;;;;
2023/09/29 14:03:55;;;;;;;12.60;5.20;;;;;;;26.68;32.59;101565.68;106134;1291;72123;-90
2023/09/29 14:06:21;;;;;;;14.90;5.20;;;;;;;26.61;32.71;101560.63;106093;1292;74502;-89
2023/09/29 14:08:46;;;;;;;16.90;5.30;;;;;;;26.56;32.94;101562.89;106141;1291;58152;-82
2023/09/29 14:11:12;;;;;;;11.60;5.00;;;;;;;26.51;32.68;101560.13;106109;1293;58298;-87
2023/09/29 14:13:38;;;;;;;18.10;5.10;;;;;;;26.47;32.63;101559.59;106057;1293;58271;-86
2023/09/29 14:16:05;;;;;;;12.40;4.80;;;;;;;26.43;32.76;101559.05;106059;1293;58392;-92
2023/09/29 14:18:31;;;;;;;11.90;4.70;;;;;;;26.39;32.93;101561.13;105876;1297;73799;-89
2023/09/29 14:20:57;;;;;;;10.80;4.90;;;;;;;26.33;32.75;101557.30;105957;1294;58252;-87
2023/09/29 14:23:23;;;;;;;11.10;5.30;;;;;;;26.28;32.91;101560.40;105986;1294;58244;-91
2023/09/29 14:25:50;;;;;;;18.20;5.00;;;;;;;26.25;33.13;101557.92;105876;1294;58487;-89
2023/09/29 14:28:16;;;;;;;12.30;5.20;;;;;;;26.22;33.47;101557.34;106026;1294;58171;-94
2023/09/29 14:30:41;;;;;;;10.80;4.70;;;;;;;26.16;33.67;101555.86;106240;1286;71945;-94
2023/09/29 14:33:08;;;;;;;15.40;5.10;;;;;;;26.10;33.86;101552.33;106497;1286;58167;-88
2023/09/29 14:35:34;;;;;;;26.60;5.80;;;;;;;26.03;34.15;101557.52;106229;1290;58300;-90
2023/09/29 14:37:59;;;;;;;23.20;6.50;;;;;;;25.93;34.29;101550.25;105990;1294;58195;-89
2023/09/29 14:40:27;;;;;;;17.90;7.60;;;;;;;25.86;34.56;101554.98;105887;1294;58615;-89
2023/09/29 14:42:52;;;;;;;16.30;6.00;;;;;;;25.77;34.66;101549.96;105745;1295;61196;-92
2023/09/29 14:45:18;;;;;;;22.60;6.30;;;;;;;25.68;34.78;101551.48;106038;1291;58392;-91
2023/09/29 14:47:44;;;;;;;20.80;5.90;;;;;;;25.60;34.90;101549.77;105825;1293;58345;-91
2023/09/29 14:50:10;;;;;;;21.90;5.50;;;;;;;25.52;35.01;101550.95;105763;1294;58751;-87
2023/09/29 14:52:36;;;;;;;20.00;5.90;;;;;;;25.44;35.10;101545.76;105706;1297;58374;-89
2023/09/29 14:55:04;;;;;;;14.50;5.90;;;;;;;25.32;35.25;101549.67;105777;1297;58486;-90
2023/09/29 14:57:32;;;;;;;19.40;5.70;;;;;;;25.22;35.54;101551.97;105709;1297;58591;-90
2023/09/29 14:59:59;;;;;;;13.70;5.60;;;;;;;25.13;35.78;101548.44;105707;1296;73739;-87
2023/09/29 15:02:24;;;;;;;17.60;4.80;;;;;;;25.01;35.77;101548.77;105709;1297;58470;-91
2023/09/29 15:04:53;;;;;;;16.80;5.20;;;;;;;24.92;36.03;101552.75;105649;1296;58736;-86
2023/09/29 15:07:20;;;;;;;15.90;5.80;;;;;;;24.82;36.39;101553.30;105820;1294;61268;-87
2023/09/29 15:09:46;;;;;;;22.30;6.10;;;;;;;24.73;36.61;101553.80;106021;1291;60850;-89
2023/09/29 15:12:12;;;;;;;21.50;6.10;;;;;;;24.58;37.10;101553.77;106012;1291;58296;-90
2023/09/29 15:14:38;;;;;;;12.70;6.30;;;;;;;24.40;37.59;101549.14;106155;1291;58670;-90
2023/09/29 15:17:04;;;;;;;13.00;6.10;;;;;;;24.22;38.44;101550.35;105965;1291;58754;-91
2023/09/29 15:19:30;;;;;;;16.00;7.60;;;;;;;24.05;38.92;101549.95;106287;1289;58577;-90
2023/09/29 15:21:58;;;;;;;23.90;7.60;;;;;;;23.88;38.84;101551.80;106479;1286;58117;-89
2023/09/29 15:24:23;;;;;;;21.50;7.60;;;;;;;23.73;39.13;101548.93;106693;1283;58306;-85
2023/09/29 15:26:49;;;;;;;19.70;7.90;;;;;;;23.61;39.38;101552.39;106691;1289;58275;-89
2023/09/29 15:29:16;;;;;;;28.30;8.90;;;;;;;23.48;39.52;101551.64;106573;1283;58307;-90
2023/09/29 15:31:43;;;;;;;50.90;10.50;;;;;;;23.31;39.96;101553.00;106829;1283;58600;-90
2023/09/29 15:34:10;;;;;;;34.40;9.90;;;;;;;23.13;40.36;101556.25;106818;1283;58181;-90
2023/09/29 15:36:36;;;;;;;25.80;8.60;;;;;;;22.96;40.71;101555.04;106977;1283;58244;-89
2023/09/29 15:39:03;;;;;;;24.60;8.50;;;;;;;22.78;41.48;101556.59;106781;1283;58715;-90
2023/09/29 15:41:30;;;;;;;23.80;7.90;;;;;;;22.58;41.93;101558.30;106706;1285;58178;-90
2023/09/29 15:43:55;;;;;;;26.50;9.20;;;;;;;22.38;42.44;101557.58;106955;1283;58120;-87
2023/09/29 15:46:21;;;;;;;21.20;9.20;;;;;;;22.22;42.55;101557.63;106994;1283;58164;-89
2023/09/29 15:48:47;;;;;;;41.30;10.30;;;;;;;22.08;43.22;101562.35;106966;1283;58346;-85
2023/09/29 15:51:12;;;;;;;32.40;10.40;;;;;;;21.93;43.68;101561.91;106688;1286;59867;-89
2023/09/29 15:53:39;;;;;;;167.30;19.40;;;;;;;21.81;44.27;101561.05;106436;1286;60011;-86
2023/09/29 15:56:06;;;;;;;335.50;30.60;;;;;;;21.72;44.48;101561.82;106629;1286;58329;-89
2023/09/29 15:58:33;;;;;;;150.50;19.50;;;;;;;21.62;44.81;101561.86;106494;1286;73829;-89
2023/09/29 16:00:58;;;;;;;212.20;20.80;;;;;;;21.44;46.19;101567.03;106307;1286;73432;-90
2023/09/29 16:03:24;;;;;;;211.60;21.90;;;;;;;21.26;47.06;101568.82;106412;1286;58307;-90
2023/09/29 16:05:50;;;;;;;261.60;24.00;;;;;;;21.06;48.91;101570.92;106157;1289;58464;-89
2023/09/29 16:08:17;;;;;;;156.70;19.90;;;;;;;20.86;49.83;101570.85;106328;1286;58440;-89
2023/09/29 16:10:44;;;;;;;178.20;22.50;;;;;;;20.74;51.17;101570.77;106496;1286;58206;-87
2023/09/29 16:13:33;;;;;;;98.70;19.80;;;;;;;20.58;52.51;101573.52;106373;1289;73387;-87
2023/09/29 16:16:36;;;;;;;75.00;17.90;;;;;;;20.39;53.03;101570.66;106177;1289;72527;-91
2023/09/29 16:19:02;;;;;;;121.30;20.20;;;;;;;20.30;53.06;101570.07;105763;1297;61544;-86
2023/09/29 16:21:28;;;;;;;62.60;17.50;;;;;;;20.16;54.75;101571.73;105733;1297;58217;-83
2023/09/29 16:23:53;;;;;;;104.40;21.70;;;;;;;20.02;55.18;101572.36;105786;1294;58253;-88
2023/09/29 16:26:39;;;;;;;117.70;21.30;;;;;;;19.83;59.61;101571.79;105650;1297;73458;-89
2023/09/29 16:29:09;;;;;;;132.80;21.40;;;;;;;19.61;67.37;101569.13;105678;1296;58970;-88
2023/09/29 16:31:35;;;;;;;126.20;22.90;;;;;;;19.46;71.13;101571.73;105530;1297;60299;-87
2023/09/29 16:34:02;;;;;;;72.50;17.40;;;;;;;19.38;75.60;101573.38;105631;1301;58502;-88
2023/09/29 16:36:32;;;;;;;68.50;18.30;;;;;;;19.30;70.70;101572.84;105657;1296;74756;-88
2023/09/29 16:39:20;;;;;;;63.00;19.70;;;;;;;19.21;68.60;101573.49;105636;1295;74536;-88
2023/09/29 16:41:46;;;;;;;52.60;16.60;;;;;;;19.14;67.22;101575.45;105378;1300;73540;-87
2023/09/29 16:44:12;;;;;;;34.10;14.20;;;;;;;19.12;66.58;101576.96;105331;1299;58930;-87
2023/09/29 16:46:38;;;;;;;62.40;14.20;;;;;;;19.09;66.13;101576.73;105454;1300;59376;-87
2023/09/29 16:49:06;;;;;;;33.60;10.60;;;;;;;19.04;66.51;101576.61;105499;1296;58427;-87
2023/09/29 16:51:33;;;;;;;33.20;10.80;;;;;;;19.00;66.35;101585.63;105844;1294;73431;-88
2023/09/29 16:54:04;;;;;;;22.60;9.60;;;;;;;18.97;66.32;101586.44;105419;1299;71863;-87
2023/09/29 16:56:32;;;;;;;26.00;9.60;;;;;;;18.93;66.73;101590.36;105573;1297;59523;-88
2023/09/29 16:59:11;;;;;;;43.90;11.30;;;;;;;18.87;67.32;101589.34;105589;1297;60709;-88
2023/09/29 17:01:43;;;;;;;27.60;9.70;;;;;;;18.82;67.74;101588.52;105595;1297;73940;-88
2023/09/29 17:04:09;;;;;;;28.40;10.00;;;;;;;18.78;67.84;101591.14;105570;1294;73650;-88
2023/09/29 17:06:36;;;;;;;27.00;10.80;;;;;;;18.75;67.03;101591.23;105456;1297;58947;-87
2023/09/29 17:09:02;;;;;;;22.10;9.30;;;;;;;18.72;66.88;101590.95;105571;1297;59234;-83
2023/09/29 17:11:32;;;;;;;28.70;9.70;;;;;;;18.68;67.14;101592.90;105387;1297;58239;-85
2023/09/29 17:14:19;;;;;;;28.40;8.60;;;;;;;18.64;67.74;101591.81;105455;1295;74600;-87
2023/09/29 17:16:46;;;;;;;27.60;8.60;;;;;;;18.57;68.39;101588.92;105299;1300;72409;-85
2023/09/29 17:19:13;;;;;;;22.50;8.20;;;;;;;18.52;69.58;101597.38;105359;1299;74260;-88
2023/09/29 17:21:40;;;;;;;31.40;8.60;;;;;;;18.46;70.32;101594.89;105494;1299;60645;-86
2023/09/29 17:24:06;;;;;;;24.60;8.00;;;;;;;18.42;69.99;101598.25;105266;1302;60186;-87
2023/09/29 17:26:35;;;;;;;29.40;8.00;;;;;;;18.38;71.49;101600.96;105124;1301;58621;-89
2023/09/29 17:29:04;;;;;;;29.30;9.20;;;;;;;18.31;72.67;101599.98;104967;1302;72699;-88
2023/09/29 17:31:34;;;;;;;21.80;9.20;;;;;;;18.25;72.46;101598.69;105028;1304;72943;-87
2023/09/29 17:34:20;;;;;;;28.90;9.20;;;;;;;18.20;72.67;101599.34;105510;1297;59133;-87
2023/09/29 17:36:48;;;;;;;30.60;9.70;;;;;;;18.15;72.08;101596.64;105359;1300;61342;-87
2023/09/29 17:39:15;;;;;;;27.80;9.60;;;;;;;18.08;71.71;101594.52;105338;1300;73419;-87
2023/09/29 17:41:42;;;;;;;24.10;10.20;;;;;;;18.03;72.03;101598.11;105437;1300;58354;-87
2023/09/29 17:44:09;;;;;;;30.20;10.00;;;;;;;17.95;72.36;101598.22;105315;1300;73614;-84
2023/09/29 17:46:38;;;;;;;31.00;11.20;;;;;;;17.86;81.83;101599.45;105356;1300;58463;-84
2023/09/29 17:49:03;;;;;;;24.40;10.40;;;;;;;17.79;79.66;101596.32;105407;1299;61359;-85
2023/09/29 17:51:29;;;;;;;33.50;11.10;;;;;;;17.72;77.78;101595.58;105410;1300;58309;-84
2023/09/29 17:53:54;;;;;;;37.00;12.40;;;;;;;17.64;78.32;101598.26;105178;1302;58436;-85
2023/09/29 17:56:20;;;;;;;34.60;12.40;;;;;;;17.57;78.86;101598.35;105365;1302;58617;-84
2023/09/29 17:58:45;;;;;;;28.10;11.50;;;;;;;17.49;81.37;101596.55;105145;1304;58328;-89
2023/09/29 18:01:11;;;;;;;25.80;11.30;;;;;;;17.41;82.03;101596.11;105431;1301;73564;-87
2023/09/29 18:03:38;;;;;;;41.80;11.70;;;;;;;17.34;84.56;101599.08;105325;1301;58421;-89
2023/09/29 18:06:04;;;;;;;38.40;12.50;;;;;;;17.26;87.22;101598.52;105376;1302;58318;-86
2023/09/29 18:08:32;;;;;;;48.60;12.40;;;;;;;17.17;88.56;101597.31;105747;1294;58327;-85
2023/09/29 18:10:58;;;;;;;39.40;11.80;;;;;;;17.07;90.67;101598.83;105891;1295;60996;-84
2023/09/29 18:13:24;;;;;;;47.90;13.40;;;;;;;16.95;90.85;101595.72;105946;1294;58453;-85
2023/09/29 18:15:50;;;;;;;42.70;12.50;;;;;;;16.86;90.68;101593.39;106186;1289;58300;-85
2023/09/29 18:18:16;;;;;;;49.70;12.80;;;;;;;16.78;90.47;101595.98;106072;1289;58394;-91
2023/09/29 18:20:42;;;;;;;38.50;12.70;;;;;;;16.73;90.64;101593.18;106080;1289;58284;-83
2023/09/29 18:23:07;;;;;;;35.20;11.70;;;;;;;16.71;90.74;101597.61;106237;1289;59212;-84
2023/09/29 18:25:33;;;;;;;36.90;12.10;;;;;;;16.70;90.78;101591.77;106492;1287;58477;-85
2023/09/29 18:27:58;;;;;;;33.50;11.80;;;;;;;16.69;90.80;101595.98;106439;1288;58326;-83
2023/09/29 18:30:25;;;;;;;32.80;11.10;;;;;;;16.66;90.92;101594.13;106676;1285;58533;-88
2023/09/29 18:32:51;;;;;;;29.00;10.70;;;;;;;16.61;90.84;101597.52;106844;1285;61349;-85
2023/09/29 18:35:17;;;;;;;30.40;11.50;;;;;;;16.57;91.02;101598.30;107068;1283;58334;-89
2023/09/29 18:37:42;;;;;;;35.40;12.90;;;;;;;16.51;92.58;101597.59;106764;1289;58348;-84
2023/09/29 18:40:10;;;;;;;42.60;12.40;;;;;;;16.45;93.61;101596.95;106710;1283;58485;-83
2023/09/29 18:42:36;;;;;;;31.60;12.40;;;;;;;16.42;94.52;101596.20;106817;1285;58710;-92
2023/09/29 18:45:05;;;;;;;38.40;12.90;;;;;;;16.34;94.94;101598.16;106791;1285;58318;-85
2023/09/29 18:47:32;;;;;;;28.90;11.80;;;;;;;16.28;95.79;101593.42;106647;1286;73524;-85
2023/09/29 18:49:58;;;;;;;39.00;13.50;;;;;;;16.23;98.82;101596.54;106566;1286;74255;-83
2023/09/29 18:52:24;;;;;;;31.60;13.20;;;;;;;16.17;100.00;101597.23;106546;1286;58344;-85
2023/09/29 18:54:49;;;;;;;38.10;14.40;;;;;;;16.10;100.00;101598.61;106528;1286;58854;-83
2023/09/29 18:57:15;;;;;;;34.30;12.90;;;;;;;16.04;100.00;101594.63;106429;1286;58266;-85
2023/09/29 18:59:41;;;;;;;35.10;13.10;;;;;;;16.00;100.00;101596.88;106581;1286;58618;-87
2023/09/29 19:02:07;;;;;;;34.80;14.70;;;;;;;15.96;100.00;101598.77;106663;1286;73577;-88
2023/09/29 19:04:33;;;;;;;40.70;13.50;;;;;;;15.89;100.00;101596.42;106543;1286;58288;-84
2023/09/29 19:06:59;;;;;;;31.50;12.50;;;;;;;15.81;100.00;101594.79;106538;1286;58306;-83
2023/09/29 19:09:26;;;;;;;36.20;13.00;;;;;;;15.67;100.00;101594.33;106561;1286;58557;-85
2023/09/29 19:11:51;;;;;;;29.40;13.80;;;;;;;15.54;100.00;101593.20;106416;1291;58433;-85
2023/09/29 19:14:17;;;;;;;31.50;13.00;;;;;;;15.50;100.00;101594.21;106372;1286;58815;-89
2023/09/29 19:16:42;;;;;;;34.30;12.60;;;;;;;15.46;100.00;101592.58;106315;1289;58288;-83
2023/09/29 19:19:12;;;;;;;43.70;14.30;;;;;;;15.39;100.00;101593.42;106427;1288;74697;-83
2023/09/29 19:21:40;;;;;;;44.60;15.50;;;;;;;15.33;100.00;101589.55;106348;1288;74216;-85
2023/09/29 19:24:07;;;;;;;39.50;14.30;;;;;;;15.27;100.00;101591.98;106336;1288;72895;-85
2023/09/29 19:26:33;;;;;;;36.80;13.60;;;;;;;15.24;100.00;101596.48;106456;1288;62786;-89
2023/09/29 19:28:58;;;;;;;41.70;12.40;;;;;;;15.19;100.00;101601.45;106391;1289;58663;-82
2023/09/29 19:31:28;;;;;;;30.00;11.40;;;;;;;15.15;100.00;101593.03;106345;1288;58674;-85
2023/09/29 19:33:55;;;;;;;26.10;10.90;;;;;;;15.18;100.00;101593.20;106173;1292;73549;-85
2023/09/29 19:36:24;;;;;;;29.70;11.50;;;;;;;15.19;100.00;101595.16;106103;1291;72362;-84
2023/09/29 19:38:49;;;;;;;30.10;11.80;;;;;;;15.17;100.00;101598.46;106123;1291;60563;-82
2023/09/29 19:41:15;;;;;;;34.10;12.60;;;;;;;15.14;100.00;101594.48;106161;1294;58235;-84
2023/09/29 19:43:41;;;;;;;30.30;11.80;;;;;;;15.14;100.00;101591.06;106113;1290;58685;-87
2023/09/29 19:46:10;;;;;;;30.80;12.60;;;;;;;15.13;100.00;101591.06;106065;1292;58238;-88
2023/09/29 19:48:36;;;;;;;34.90;13.00;;;;;;;15.09;100.00;101588.27;106126;1286;72735;-85
2023/09/29 19:51:03;;;;;;;29.20;12.90;;;;;;;15.04;100.00;101589.23;106499;1286;58614;-90
2023/09/29 19:53:29;;;;;;;44.30;13.90;;;;;;;14.99;100.00;101589.27;106422;1286;58188;-87
2023/09/29 19:55:58;;;;;;;32.20;13.60;;;;;;;14.95;100.00;101588.75;106519;1286;58348;-84
2023/09/29 19:58:24;;;;;;;32.00;13.60;;;;;;;14.90;100.00;101589.11;106465;1286;74473;-85
2023/09/29 20:00:50;;;;;;;32.60;13.00;;;;;;;14.86;100.00;101591.80;106498;1288;58322;-89
2023/09/29 20:03:15;;;;;;;28.30;12.80;;;;;;;14.81;100.00;101589.61;106381;1286;58348;-90
2023/09/29 20:05:44;;;;;;;30.30;13.30;;;;;;;14.75;100.00;101595.45;106827;1283;58638;-86
2023/09/29 20:08:11;;;;;;;35.30;13.80;;;;;;;14.69;100.00;101599.26;106598;1283;73915;-82
2023/09/29 20:10:37;;;;;;;32.60;12.60;;;;;;;14.65;100.00;101596.37;107165;1282;72860;-87
2023/09/29 20:13:05;;;;;;;30.00;12.10;;;;;;;14.65;100.00;101595.39;107103;1281;58679;-84
2023/09/29 20:15:30;;;;;;;30.20;12.60;;;;;;;14.65;100.00;101594.36;106875;1285;62381;-86
2023/09/29 20:17:56;;;;;;;38.30;12.00;;;;;;;14.67;100.00;101588.55;107191;1282;58236;-89
2023/09/29 20:20:22;;;;;;;26.70;12.50;;;;;;;14.65;100.00;101596.80;106962;1283;58296;-82
2023/09/29 20:22:47;;;;;;;27.10;11.80;;;;;;;14.64;100.00;101599.01;107208;1282;58310;-83
2023/09/29 20:25:13;;;;;;;28.00;12.30;;;;;;;14.63;100.00;101600.69;107120;1282;58673;-84
2023/09/29 20:27:38;;;;;;;26.60;11.80;;;;;;;14.62;100.00;101601.02;106848;1283;58229;-82
2023/09/29 20:30:05;;;;;;;27.70;12.10;;;;;;;14.61;100.00;101602.73;107182;1282;58263;-87
2023/09/29 20:32:30;;;;;;;31.90;13.40;;;;;;;14.58;100.00;101603.75;106876;1282;58264;-84
2023/09/29 20:34:59;;;;;;;29.50;13.40;;;;;;;14.56;100.00;101603.19;106965;1283;58256;-87
2023/09/29 20:37:24;;;;;;;30.70;12.40;;;;;;;14.53;100.00;101605.19;106460;1286;61929;-87
2023/09/29 20:39:50;;;;;;;37.00;14.20;;;;;;;14.51;100.00;101602.77;106564;1286;58370;-84
2023/09/29 20:42:15;;;;;;;34.70;15.40;;;;;;;14.49;100.00;101609.13;106682;1286;58650;-85
2023/09/29 20:44:41;;;;;;;30.20;14.10;;;;;;;14.49;100.00;101605.67;106521;1286;58560;-85
2023/09/29 20:47:07;;;;;;;32.80;14.30;;;;;;;14.50;100.00;101608.87;106619;1286;58358;-91
2023/09/29 20:49:33;;;;;;;37.70;14.20;;;;;;;14.49;100.00;101608.11;106539;1286;59997;-85
2023/09/29 20:51:58;;;;;;;41.90;16.10;;;;;;;14.49;100.00;101605.34;106448;1289;58455;-88
2023/09/29 20:54:24;;;;;;;37.30;15.40;;;;;;;14.48;100.00;101603.32;106445;1289;58331;-84
2023/09/29 20:56:49;;;;;;;41.10;15.80;;;;;;;14.49;100.00;101605.07;106152;1289;58404;-83
2023/09/29 20:59:15;;;;;;;29.40;14.50;;;;;;;14.48;100.00;101604.86;106307;1288;58783;-85
2023/09/29 21:01:50;;;;;;;26.20;14.00;;;;;;;14.47;100.00;101603.86;106311;1289;74551;-87
2023/09/29 21:04:16;;;;;;;33.40;13.60;;;;;;;14.43;100.00;101602.81;106353;1288;74179;-85
2023/09/29 21:06:42;;;;;;;35.40;14.80;;;;;;;14.40;100.00;101604.79;106290;1288;58816;-82
2023/09/29 21:09:08;;;;;;;31.60;13.30;;;;;;;14.37;100.00;101604.55;106474;1286;58540;-83
2023/09/29 21:11:34;;;;;;;36.10;14.20;;;;;;;14.36;100.00;101606.55;106778;1285;58246;-85
2023/09/29 21:14:00;;;;;;;29.60;13.70;;;;;;;14.31;100.00;101607.17;106530;1286;58308;-83
2023/09/29 21:16:29;;;;;;;32.20;13.20;;;;;;;14.27;100.00;101608.65;106555;1286;58496;-89
2023/09/29 21:18:54;;;;;;;30.00;13.00;;;;;;;14.22;100.00;101610.08;106706;1286;58790;-85
2023/09/29 21:21:20;;;;;;;36.30;14.20;;;;;;;14.18;100.00;101611.39;106782;1285;58729;-84
2023/09/29 21:23:45;;;;;;;29.10;12.90;;;;;;;14.15;100.00;101610.45;106812;1285;58335;-84
2023/09/29 21:26:12;;;;;;;29.80;13.50;;;;;;;14.13;100.00;101605.83;106657;1286;58419;-84
2023/09/29 21:28:40;;;;;;;27.70;14.20;;;;;;;14.10;100.00;101606.13;106724;1285;58400;-84
2023/09/29 21:31:12;;;;;;;31.10;15.10;;;;;;;14.06;100.00;101604.55;106912;1283;58380;-84
2023/09/29 21:33:38;;;;;;;30.90;13.40;;;;;;;14.03;100.00;101609.21;107135;1281;62503;-82
2023/09/29 21:36:05;;;;;;;28.70;14.10;;;;;;;13.96;100.00;101604.27;106685;1286;58529;-84
2023/09/29 21:38:30;;;;;;;36.50;13.90;;;;;;;13.89;100.00;101602.69;106428;1286;58341;-84
2023/09/29 21:40:56;;;;;;;25.20;13.70;;;;;;;13.82;100.00;101605.17;106517;1286;58659;-85
2023/09/29 21:43:22;;;;;;;31.40;13.90;;;;;;;13.74;100.00;101604.13;106668;1286;58633;-83
2023/09/29 21:45:49;;;;;;;30.90;13.70;;;;;;;13.68;100.00;101607.59;106439;1286;58432;-87
2023/09/29 21:48:15;;;;;;;37.10;14.70;;;;;;;13.60;100.00;101606.65;106708;1285;58645;-85
2023/09/29 21:50:41;;;;;;;73.40;16.80;;;;;;;13.54;100.00;101605.33;106473;1286;58706;-87
2023/09/29 21:53:06;;;;;;;66.10;16.10;;;;;;;13.47;100.00;101606.23;106743;1286;58509;-90
2023/09/29 21:55:32;;;;;;;60.30;15.70;;;;;;;13.44;100.00;101606.63;106559;1288;58320;-84
2023/09/29 21:57:57;;;;;;;61.20;16.70;;;;;;;13.41;100.00;101608.58;106853;1285;58383;-82
2023/09/29 22:00:25;;;;;;;47.20;15.60;;;;;;;13.37;100.00;101607.08;106718;1286;58592;-84
2023/09/29 22:02:51;;;;;;;44.50;14.40;;;;;;;13.32;100.00;101610.98;106792;1285;74186;-82
2023/09/29 22:05:19;;;;;;;36.70;14.20;;;;;;;13.29;100.00;101609.81;106749;1285;58436;-91
2023/09/29 22:07:46;;;;;;;37.80;13.90;;;;;;;13.26;100.00;101610.44;106542;1286;61751;-84
2023/09/29 22:10:14;;;;;;;37.10;14.60;;;;;;;13.24;100.00;101612.59;106777;1285;58899;-84
2023/09/29 22:12:40;;;;;;;31.60;13.00;;;;;;;13.21;100.00;101608.39;106696;1286;74773;-90
2023/09/29 22:15:08;;;;;;;35.40;13.40;;;;;;;13.19;100.00;101606.95;107132;1282;58452;-84
2023/09/29 22:17:35;;;;;;;34.80;13.10;;;;;;;13.18;100.00;101611.59;106603;1282;72597;-85
2023/09/29 22:20:02;;;;;;;28.40;14.10;;;;;;;13.12;100.00;101612.40;107123;1282;62780;-84
2023/09/29 22:22:28;;;;;;;33.10;13.90;;;;;;;13.08;100.00;101613.15;107056;1283;61194;-82